createdAt,value
2019-01-29T00:00:30.399Z,284.30
2019-01-29T00:03:02.062Z,280.13
2019-01-29T00:05:33.774Z,285.03
2019-01-29T00:08:05.345Z,290.43
2019-01-29T00:10:37.083Z,293.87
2019-01-29T00:13:08.730Z,278.40
2019-01-29T00:15:40.381Z,275.70
2019-01-29T00:18:12.047Z,281.97
2019-01-29T00:20:43.766Z,269.30
2019-01-29T00:23:15.350Z,271.17
2019-01-29T00:25:47.014Z,265.27
2019-01-29T00:28:18.827Z,266.20
2019-01-29T00:30:50.512Z,280.13
2019-01-29T00:33:22.209Z,302.93
2019-01-29T00:35:53.792Z,287.67
2019-01-29T00:38:25.440Z,299.63
2019-01-29T00:40:57.032Z,282.10
2019-01-29T00:43:28.788Z,284.03
2019-01-29T00:46:00.373Z,287.70
2019-01-29T00:48:31.939Z,256.97
2019-01-29T00:51:03.646Z,239.20
2019-01-29T00:53:35.308Z,232.03
2019-01-29T00:56:06.890Z,240.00
2019-01-29T00:58:38.469Z,273.53
2019-01-29T01:01:10.063Z,249.37
2019-01-29T01:03:41.694Z,249.93
2019-01-29T01:06:13.285Z,253.97
2019-01-29T01:08:44.855Z,247.87
2019-01-29T01:11:16.517Z,218.87
2019-01-29T01:13:48.160Z,249.30
2019-01-29T01:16:20.146Z,230.67
2019-01-29T01:18:52.201Z,223.70
2019-01-29T01:21:23.782Z,232.63
2019-01-29T01:23:55.359Z,224.00
2019-01-29T01:26:27.016Z,223.33
2019-01-29T01:28:58.596Z,216.33
2019-01-29T01:31:30.187Z,208.40
2019-01-29T01:34:01.774Z,184.57
2019-01-29T01:36:33.454Z,180.50
2019-01-29T01:39:08.262Z,193.63
2019-01-29T01:41:39.860Z,197.53
2019-01-29T01:44:11.428Z,185.40
2019-01-29T01:46:43.022Z,195.20
2019-01-29T01:49:14.666Z,182.93
2019-01-29T01:51:46.293Z,188.13
2019-01-29T01:54:21.151Z,179.70
2019-01-29T01:56:53.117Z,180.50
2019-01-29T01:59:25.042Z,179.93
2019-01-29T02:01:56.622Z,180.73
2019-01-29T02:04:28.256Z,167.07
2019-01-29T02:06:59.922Z,177.37
2019-01-29T02:09:31.551Z,180.27
2019-01-29T02:12:03.127Z,167.30
2019-01-29T02:14:34.699Z,167.60
2019-01-29T02:17:06.368Z,160.20
2019-01-29T02:19:38.002Z,161.30
2019-01-29T02:22:09.599Z,168.23
2019-01-29T02:24:41.244Z,187.83
2019-01-29T02:27:12.903Z,128.37
2019-01-29T02:29:44.846Z,85.33
2019-01-29T02:32:17.695Z,68.80
2019-01-29T02:34:49.324Z,55.97
2019-01-29T02:37:21.295Z,39.03
2019-01-29T02:39:53.101Z,20.87
2019-01-29T02:42:25.057Z,17.10
2019-01-29T02:44:56.687Z,16.53
2019-01-29T02:47:29.319Z,20.80
2019-01-29T02:50:00.934Z,26.30
2019-01-29T02:52:32.615Z,25.63
2019-01-29T02:55:04.193Z,27.13
2019-01-29T02:57:35.841Z,31.50
2019-01-29T03:00:10.700Z,26.63
2019-01-29T03:02:42.407Z,24.93
2019-01-29T03:05:14.174Z,23.10
2019-01-29T03:07:45.830Z,22.30
2019-01-29T03:10:19.432Z,25.40
2019-01-29T03:12:51.214Z,24.47
2019-01-29T03:15:25.758Z,20.83
2019-01-29T03:17:57.490Z,18.83
2019-01-29T03:20:29.042Z,25.23
2019-01-29T03:23:00.670Z,24.57
2019-01-29T03:25:32.300Z,21.40
2019-01-29T03:28:04.113Z,21.80
2019-01-29T03:30:35.755Z,26.10
2019-01-29T03:33:07.332Z,21.57
2019-01-29T03:35:38.967Z,21.03
2019-01-29T03:38:10.536Z,20.47
2019-01-29T03:40:42.122Z,21.27
2019-01-29T03:43:13.707Z,16.77
2019-01-29T03:45:45.331Z,17.97
2019-01-29T03:48:16.919Z,17.67
2019-01-29T03:50:48.854Z,17.83
2019-01-29T03:53:20.505Z,18.10
2019-01-29T03:55:52.218Z,12.67
2019-01-29T03:58:23.960Z,12.67
2019-01-29T04:00:55.504Z,12.40
2019-01-29T04:03:27.149Z,14.67
2019-01-29T04:05:58.775Z,13.30
2019-01-29T04:08:30.430Z,13.97
2019-01-29T04:11:02.056Z,13.37
2019-01-29T04:13:33.687Z,13.73
2019-01-29T04:16:05.240Z,12.57
2019-01-29T04:18:36.883Z,9.87
2019-01-29T04:21:08.498Z,13.67
2019-01-29T04:23:47.447Z,12.50
2019-01-29T04:26:13.360Z,14.33
2019-01-29T04:28:44.924Z,13.00
2019-01-29T04:31:16.482Z,13.33
2019-01-29T04:33:48.171Z,13.33
2019-01-29T04:36:20.070Z,15.00
2019-01-29T04:38:52.011Z,12.43
2019-01-29T04:41:23.557Z,15.50
2019-01-29T04:43:55.128Z,10.93
2019-01-29T04:46:26.697Z,15.23
2019-01-29T04:48:58.271Z,12.73
2019-01-29T04:51:29.839Z,15.07
2019-01-29T04:54:01.518Z,14.50
2019-01-29T04:56:33.136Z,16.53
2019-01-29T04:59:04.788Z,17.07
2019-01-29T05:01:36.422Z,21.63
2019-01-29T05:04:08.011Z,26.23
2019-01-29T05:06:40.104Z,22.40
2019-01-29T05:09:11.754Z,14.47
2019-01-29T05:11:43.326Z,15.73
2019-01-29T05:14:14.893Z,12.07
2019-01-29T05:16:46.452Z,13.77
2019-01-29T05:19:18.325Z,12.23
2019-01-29T05:21:50.067Z,12.57
2019-01-29T05:24:22.018Z,14.43
2019-01-29T05:26:53.575Z,13.00
2019-01-29T05:29:25.226Z,14.73
2019-01-29T05:31:56.813Z,12.33
2019-01-29T05:34:28.456Z,13.40
2019-01-29T05:37:00.094Z,12.93
2019-01-29T05:39:31.680Z,11.17
2019-01-29T05:42:03.275Z,10.90
2019-01-29T05:44:34.843Z,12.57
2019-01-29T05:47:06.508Z,13.47
2019-01-29T05:49:38.086Z,13.77
2019-01-29T05:52:11.494Z,13.97
2019-01-29T05:54:43.687Z,15.03
2019-01-29T05:57:15.252Z,15.67
2019-01-29T05:59:46.913Z,15.43
2019-01-29T06:02:18.836Z,13.67
2019-01-29T06:04:50.476Z,12.17
2019-01-29T06:07:22.232Z,15.87
2019-01-29T06:09:53.812Z,16.70
2019-01-29T06:12:25.765Z,16.47
2019-01-29T06:14:57.348Z,14.10
2019-01-29T06:17:28.953Z,17.63
2019-01-29T06:20:00.632Z,15.87
2019-01-29T06:22:32.261Z,15.07
2019-01-29T06:25:03.857Z,14.50
2019-01-29T06:27:35.843Z,16.27
2019-01-29T06:30:08.740Z,16.60
2019-01-29T06:32:40.326Z,15.13
2019-01-29T06:35:13.507Z,18.33
2019-01-29T06:37:45.210Z,20.60
2019-01-29T06:40:21.980Z,18.17
2019-01-29T06:42:53.607Z,19.43
2019-01-29T06:45:25.328Z,16.00
2019-01-29T06:47:56.880Z,18.80
2019-01-29T06:50:28.448Z,20.47
2019-01-29T06:53:00.099Z,18.67
2019-01-29T06:55:31.659Z,19.07
2019-01-29T06:58:03.224Z,17.50
2019-01-29T07:00:34.886Z,17.03
2019-01-29T07:03:06.461Z,17.00
2019-01-29T07:05:38.031Z,20.33
2019-01-29T07:08:09.684Z,20.90
2019-01-29T07:10:41.332Z,21.80
2019-01-29T07:13:12.962Z,18.57
2019-01-29T07:16:01.880Z,19.23
2019-01-29T07:18:55.368Z,21.53
2019-01-29T07:21:27.015Z,17.13
2019-01-29T07:23:58.655Z,18.87
2019-01-29T07:26:30.280Z,23.83
2019-01-29T07:29:01.960Z,19.83
2019-01-29T07:31:34.194Z,21.37
2019-01-29T07:34:06.140Z,21.33
2019-01-29T07:36:37.987Z,22.73
2019-01-29T07:39:13.662Z,35.47
2019-01-29T07:41:45.570Z,30.77
2019-01-29T07:44:17.569Z,19.80
2019-01-29T07:46:51.331Z,22.23
2019-01-29T07:49:23.631Z,18.33
2019-01-29T07:51:55.644Z,23.57
2019-01-29T07:54:33.204Z,25.90
2019-01-29T07:57:00.853Z,22.83
2019-01-29T07:59:33.316Z,17.33
2019-01-29T08:02:05.097Z,17.80
2019-01-29T08:04:36.824Z,13.43
2019-01-29T08:07:08.409Z,15.87
2019-01-29T08:09:40.080Z,16.93
2019-01-29T08:12:11.731Z,14.03
2019-01-29T08:14:43.284Z,15.97
2019-01-29T08:17:14.941Z,16.20
2019-01-29T08:19:46.556Z,14.27
2019-01-29T08:22:19.054Z,14.40
2019-01-29T08:24:51.950Z,12.53
2019-01-29T08:27:23.973Z,17.20
2019-01-29T08:29:56.612Z,20.27
2019-01-29T08:32:28.516Z,21.10
2019-01-29T08:35:00.374Z,14.23
2019-01-29T08:37:32.644Z,11.13
2019-01-29T08:40:04.756Z,13.80
2019-01-29T08:42:36.450Z,14.97
2019-01-29T08:45:08.838Z,14.73
2019-01-29T08:47:42.134Z,17.57
2019-01-29T08:50:16.825Z,19.03
2019-01-29T08:52:48.408Z,16.10
2019-01-29T08:55:25.718Z,18.27
2019-01-29T08:57:58.097Z,18.90
2019-01-29T09:00:30.296Z,14.77
2019-01-29T09:03:02.566Z,15.53
2019-01-29T09:05:34.365Z,19.40
2019-01-29T09:08:06.867Z,13.60
2019-01-29T09:10:38.982Z,17.73
2019-01-29T09:13:10.674Z,14.77
2019-01-29T09:15:42.355Z,14.23
2019-01-29T09:18:17.164Z,13.73
2019-01-29T09:20:51.057Z,14.10
2019-01-29T09:23:23.740Z,11.33
2019-01-29T09:25:55.557Z,14.80
2019-01-29T09:28:29.488Z,13.93
2019-01-29T09:31:01.199Z,12.00
2019-01-29T09:33:32.846Z,12.23
2019-01-29T09:36:04.641Z,8.87
2019-01-29T09:38:36.288Z,11.80
2019-01-29T09:41:07.923Z,14.27
2019-01-29T09:43:39.568Z,9.43
2019-01-29T09:46:11.197Z,18.37
2019-01-29T09:48:43.164Z,18.00
2019-01-29T09:51:14.794Z,18.20
2019-01-29T09:53:46.471Z,17.37
2019-01-29T09:56:18.532Z,13.23
2019-01-29T09:58:50.509Z,15.27
2019-01-29T10:01:22.436Z,21.83
2019-01-29T10:03:54.042Z,11.33
2019-01-29T10:06:25.671Z,17.07
2019-01-29T10:08:57.326Z,12.13
2019-01-29T10:11:28.893Z,9.23
2019-01-29T10:14:00.476Z,9.10
2019-01-29T10:16:32.042Z,9.70
2019-01-29T10:19:03.613Z,8.13
2019-01-29T10:21:35.251Z,9.57
2019-01-29T10:24:07.233Z,9.97
2019-01-29T10:26:38.887Z,8.53
2019-01-29T10:29:10.543Z,18.23
2019-01-29T10:31:42.188Z,8.20
2019-01-29T10:34:13.772Z,16.27
2019-01-29T10:36:45.392Z,9.20
2019-01-29T10:39:16.961Z,13.67
2019-01-29T10:41:48.594Z,8.53
2019-01-29T10:44:20.834Z,8.40
2019-01-29T10:46:52.463Z,6.60
2019-01-29T10:49:24.107Z,8.60
2019-01-29T10:51:55.733Z,13.13
2019-01-29T10:54:27.574Z,9.73
2019-01-29T10:56:59.205Z,12.07
2019-01-29T10:59:30.867Z,10.00
2019-01-29T11:02:02.411Z,8.63
2019-01-29T11:04:34.975Z,10.20
2019-01-29T11:07:06.701Z,8.73
2019-01-29T11:09:38.270Z,7.83
2019-01-29T11:12:09.839Z,11.67
2019-01-29T11:14:41.799Z,12.93
2019-01-29T11:17:13.416Z,14.97
2019-01-29T11:19:45.060Z,12.20
2019-01-29T11:22:16.680Z,11.87
2019-01-29T11:24:48.546Z,12.27
2019-01-29T11:27:20.405Z,16.53
2019-01-29T11:29:52.425Z,13.80
2019-01-29T11:32:24.137Z,16.30
2019-01-29T11:34:55.736Z,12.07
2019-01-29T11:37:27.504Z,23.53
2019-01-29T11:39:59.164Z,68.70
2019-01-29T11:42:31.792Z,25.10
2019-01-29T11:45:03.475Z,34.17
2019-01-29T11:47:35.103Z,36.43
2019-01-29T11:50:07.203Z,13.87
2019-01-29T11:52:38.841Z,15.93
2019-01-29T11:55:10.562Z,18.67
2019-01-29T11:57:42.273Z,20.47
2019-01-29T12:00:19.535Z,19.50
2019-01-29T12:02:51.445Z,11.20
2019-01-29T12:05:23.355Z,21.63
2019-01-29T12:07:55.259Z,16.50
2019-01-29T12:10:27.091Z,11.60
2019-01-29T12:12:58.717Z,15.73
2019-01-29T12:15:30.288Z,19.37
2019-01-29T12:18:01.928Z,16.70
2019-01-29T12:20:33.580Z,58.30
2019-01-29T12:23:05.264Z,25.83
2019-01-29T12:25:36.847Z,51.03
2019-01-29T12:28:09.485Z,15.00
2019-01-29T12:30:41.130Z,19.87
2019-01-29T12:33:12.766Z,17.33
2019-01-29T12:35:44.614Z,14.87
2019-01-29T12:38:16.251Z,18.60
2019-01-29T12:40:47.883Z,27.10
2019-01-29T12:43:19.582Z,37.70
2019-01-29T12:45:51.424Z,33.03
2019-01-29T12:48:23.289Z,22.67
2019-01-29T12:50:59.518Z,20.10
2019-01-29T12:53:38.858Z,24.90
2019-01-29T12:56:10.562Z,22.20
2019-01-29T12:58:42.181Z,12.47
2019-01-29T13:01:13.830Z,12.17
2019-01-29T13:03:45.502Z,29.40
2019-01-29T13:06:19.736Z,22.60
2019-01-29T13:08:58.455Z,38.43
2019-01-29T13:11:34.451Z,31.60
2019-01-29T13:14:08.223Z,14.47
2019-01-29T13:16:40.607Z,14.27
2019-01-29T13:19:12.359Z,17.63
2019-01-29T13:21:44.880Z,34.40
2019-01-29T13:24:17.891Z,39.93
2019-01-29T13:26:49.681Z,18.83
2019-01-29T13:29:21.570Z,24.23
2019-01-29T13:31:53.448Z,35.23
2019-01-29T13:34:25.496Z,40.47
2019-01-29T13:36:57.232Z,16.57
2019-01-29T13:39:28.898Z,32.67
2019-01-29T13:42:00.597Z,22.40
2019-01-29T13:44:32.230Z,20.53
2019-01-29T13:47:10.036Z,22.97
2019-01-29T13:49:41.688Z,11.97
2019-01-29T13:52:13.290Z,128.03
2019-01-29T13:54:46.179Z,27.97
2019-01-29T13:57:19.632Z,47.50
2019-01-29T13:59:51.238Z,53.10
2019-01-29T14:02:22.906Z,63.63
2019-01-29T14:04:55.928Z,51.00
2019-01-29T14:07:28.858Z,21.50
2019-01-29T14:10:02.451Z,11.23
2019-01-29T14:12:35.235Z,52.60
2019-01-29T14:15:08.112Z,26.30
2019-01-29T14:17:40.474Z,36.40
2019-01-29T14:20:15.043Z,19.13
2019-01-29T14:22:46.790Z,23.00
2019-01-29T14:25:18.851Z,28.70
2019-01-29T14:27:57.628Z,22.30
2019-01-29T14:30:31.719Z,24.03
2019-01-29T14:33:03.575Z,14.63
2019-01-29T14:35:35.571Z,40.33
2019-01-29T14:38:48.683Z,138.63
2019-01-29T14:41:21.789Z,44.83
2019-01-29T14:43:58.304Z,184.13
2019-01-29T14:46:29.978Z,184.10
2019-01-29T14:49:01.711Z,87.87
2019-01-29T14:51:34.367Z,49.57
2019-01-29T14:54:05.985Z,79.00
2019-01-29T14:56:37.642Z,48.87
2019-01-29T14:59:09.242Z,80.63
2019-01-29T15:01:40.810Z,32.17
2019-01-29T15:04:12.479Z,105.87
2019-01-29T15:06:44.203Z,40.67
2019-01-29T15:09:17.537Z,40.27
2019-01-29T15:11:49.814Z,55.63
2019-01-29T15:14:21.773Z,87.47
2019-01-29T15:17:01.933Z,65.33
2019-01-29T15:19:34.134Z,77.13
2019-01-29T15:22:05.712Z,118.03
2019-01-29T15:24:37.290Z,70.77
2019-01-29T15:27:08.936Z,83.33
2019-01-29T15:29:40.508Z,86.83
2019-01-29T15:32:12.062Z,126.70
2019-01-29T15:34:43.708Z,97.30
2019-01-29T15:37:15.366Z,106.83
2019-01-29T15:39:47.022Z,149.93
2019-01-29T15:42:18.782Z,115.10
2019-01-29T15:44:50.598Z,87.83
2019-01-29T15:47:22.559Z,75.43
2019-01-29T15:49:54.194Z,73.47
2019-01-29T15:52:25.846Z,36.60
2019-01-29T15:54:57.400Z,38.43
2019-01-29T15:57:29.030Z,55.03
2019-01-29T16:00:00.674Z,47.60
2019-01-29T16:02:32.296Z,55.10
2019-01-29T16:05:03.887Z,43.93
2019-01-29T16:07:36.508Z,45.47
2019-01-29T16:10:09.808Z,50.03
2019-01-29T16:12:41.470Z,43.13
2019-01-29T16:15:14.504Z,34.83
2019-01-29T16:17:46.074Z,54.50
2019-01-29T16:20:19.231Z,41.03
2019-01-29T16:22:50.849Z,41.07
2019-01-29T16:25:22.938Z,45.33
2019-01-29T16:27:54.568Z,53.97
2019-01-29T16:30:27.092Z,55.73
2019-01-29T16:32:58.744Z,65.33
2019-01-29T16:35:31.738Z,77.63
2019-01-29T16:38:03.390Z,64.17
2019-01-29T16:40:35.067Z,55.30
2019-01-29T16:43:07.708Z,54.80
2019-01-29T16:45:39.364Z,44.33
2019-01-29T16:48:11.026Z,49.97
2019-01-29T16:50:42.697Z,50.97
2019-01-29T16:53:14.350Z,45.80
2019-01-29T16:55:45.989Z,46.73
2019-01-29T16:58:26.268Z,35.90
2019-01-29T17:00:58.085Z,39.07
2019-01-29T17:03:30.568Z,31.30
2019-01-29T17:06:02.192Z,38.30
2019-01-29T17:08:33.840Z,51.03
2019-01-29T17:11:06.470Z,43.67
2019-01-29T17:13:38.096Z,288.47
2019-01-29T17:16:09.735Z,192.17
2019-01-29T17:18:41.378Z,112.37
2019-01-29T17:21:12.940Z,175.33
2019-01-29T17:23:44.990Z,275.77
2019-01-29T17:26:16.708Z,285.50
2019-01-29T17:28:48.373Z,314.60
2019-01-29T17:31:20.346Z,245.10
2019-01-29T17:33:52.283Z,251.23
2019-01-29T17:36:24.138Z,273.60
2019-01-29T17:38:56.061Z,282.60
2019-01-29T17:41:27.856Z,286.23
2019-01-29T17:44:01.415Z,295.50
2019-01-29T17:46:34.142Z,257.60
2019-01-29T17:49:05.827Z,271.90
2019-01-29T17:51:37.502Z,298.97
2019-01-29T17:54:10.732Z,296.70
2019-01-29T17:56:43.021Z,252.87
2019-01-29T17:59:14.694Z,222.20
2019-01-29T18:01:46.276Z,211.70
2019-01-29T18:04:18.840Z,201.07
2019-01-29T18:06:50.493Z,179.40
2019-01-29T18:09:22.534Z,180.07
2019-01-29T18:11:54.249Z,208.50
2019-01-29T18:14:26.097Z,168.67
2019-01-29T18:16:57.755Z,198.40
2019-01-29T18:19:29.395Z,189.63
2019-01-29T18:22:01.043Z,252.40
2019-01-29T18:24:32.677Z,224.40
2019-01-29T18:27:04.332Z,219.40
2019-01-29T18:29:35.918Z,191.40
2019-01-29T18:32:07.495Z,226.43
2019-01-29T18:34:39.135Z,247.73
2019-01-29T18:37:10.781Z,254.07
2019-01-29T18:39:42.434Z,261.47
2019-01-29T18:42:14.068Z,236.73
2019-01-29T18:44:45.655Z,235.87
2019-01-29T18:47:17.520Z,267.13
2019-01-29T18:49:49.250Z,296.57
2019-01-29T18:52:21.465Z,253.67
2019-01-29T18:54:57.027Z,231.57
2019-01-29T18:57:31.510Z,260.43
2019-01-29T19:00:04.230Z,270.90
2019-01-29T19:02:36.631Z,330.23
2019-01-29T19:05:10.733Z,313.03
2019-01-29T19:07:44.791Z,332.40
2019-01-29T19:10:17.897Z,423.73
2019-01-29T19:12:50.159Z,395.90
2019-01-29T19:15:23.415Z,362.57
2019-01-29T19:17:56.153Z,212.63
2019-01-29T19:20:33.770Z,189.27
2019-01-29T19:23:05.994Z,137.73
2019-01-29T19:25:38.131Z,171.00
2019-01-29T19:28:21.433Z,142.20
2019-01-29T19:30:47.621Z,130.27
2019-01-29T19:33:20.722Z,160.07
2019-01-29T19:35:52.790Z,181.23
2019-01-29T19:38:25.116Z,168.20
2019-01-29T19:40:59.750Z,178.00
2019-01-29T19:43:33.195Z,151.00
2019-01-29T19:46:05.373Z,188.33
2019-01-29T19:48:37.055Z,186.77
2019-01-29T19:51:10.026Z,244.03
2019-01-29T19:53:42.479Z,173.57
2019-01-29T19:56:14.594Z,159.27
2019-01-29T19:58:46.554Z,148.47
2019-01-29T20:01:19.511Z,146.40
2019-01-29T20:03:51.488Z,147.60
2019-01-29T20:06:23.710Z,248.97
2019-01-29T20:08:57.142Z,187.20
2019-01-29T20:11:30.253Z,199.63
2019-01-29T20:14:04.809Z,112.40
2019-01-29T20:16:40.788Z,144.10
2019-01-29T20:19:13.033Z,135.87
2019-01-29T20:21:45.166Z,477.80
2019-01-29T20:24:18.423Z,524.67
2019-01-29T20:26:51.052Z,413.53
2019-01-29T20:29:25.469Z,243.10
2019-01-29T20:31:57.442Z,220.07
2019-01-29T20:34:30.485Z,169.00
2019-01-29T20:37:05.425Z,214.97
2019-01-29T20:39:37.998Z,186.57
2019-01-29T20:42:10.764Z,169.47
2019-01-29T20:44:43.525Z,157.43
2019-01-29T20:47:17.643Z,145.20
2019-01-29T20:49:51.612Z,168.30
2019-01-29T20:52:23.909Z,154.43
2019-01-29T20:54:56.345Z,154.97
2019-01-29T20:57:49.158Z,145.37
2019-01-29T21:00:28.922Z,202.17
2019-01-29T21:03:01.329Z,242.23
2019-01-29T21:05:33.041Z,237.77
2019-01-29T21:08:06.079Z,123.13
2019-01-29T21:10:38.026Z,125.50
2019-01-29T21:13:10.889Z,142.67
2019-01-29T21:15:44.379Z,137.90
2019-01-29T21:18:16.096Z,150.37
2019-01-29T21:20:56.652Z,187.93
2019-01-29T21:23:21.314Z,140.90
2019-01-29T21:25:52.992Z,214.10
2019-01-29T21:28:24.836Z,357.67
2019-01-29T21:30:56.558Z,444.97
2019-01-29T21:33:28.322Z,325.13
2019-01-29T21:36:00.074Z,309.03
2019-01-29T21:38:31.757Z,258.90
2019-01-29T21:41:03.500Z,249.60
2019-01-29T21:43:35.468Z,247.87
2019-01-29T21:46:07.147Z,188.90
2019-01-29T21:48:38.851Z,251.53
2019-01-29T21:51:10.546Z,248.53
2019-01-29T21:53:42.264Z,244.50
2019-01-29T21:56:14.021Z,135.17
2019-01-29T21:58:45.702Z,168.40
2019-01-29T22:01:17.443Z,158.10
2019-01-29T22:03:49.127Z,231.80
2019-01-29T22:06:21.569Z,163.80
2019-01-29T22:08:53.167Z,162.33
2019-01-29T22:11:24.891Z,132.20
2019-01-29T22:13:56.644Z,99.67
2019-01-29T22:16:28.302Z,529.73
2019-01-29T22:18:59.978Z,417.70
2019-01-29T22:21:31.642Z,301.93
2019-01-29T22:24:03.300Z,120.93
2019-01-29T22:26:35.948Z,176.80
2019-01-29T22:29:07.987Z,169.63
2019-01-29T22:31:39.572Z,206.53
2019-01-29T22:34:11.227Z,222.70
2019-01-29T22:36:42.883Z,160.37
2019-01-29T22:39:14.550Z,90.60
2019-01-29T22:41:46.201Z,106.73
2019-01-29T22:44:17.867Z,104.77
2019-01-29T22:46:49.450Z,131.00
2019-01-29T22:49:21.571Z,132.17
2019-01-29T22:51:53.222Z,128.33
2019-01-29T22:54:24.783Z,182.10
2019-01-29T22:56:56.552Z,198.97
2019-01-29T22:59:33.454Z,128.13
2019-01-29T23:02:01.548Z,100.07
2019-01-29T23:04:43.211Z,83.57
2019-01-29T23:07:23.593Z,81.17
2019-01-29T23:09:55.614Z,91.40
2019-01-29T23:12:27.562Z,111.23
2019-01-29T23:14:59.387Z,94.83
2019-01-29T23:17:31.038Z,81.10
2019-01-29T23:20:02.690Z,80.47
2019-01-29T23:22:34.439Z,70.47
2019-01-29T23:25:06.644Z,76.53
2019-01-29T23:27:38.285Z,60.83
2019-01-29T23:30:13.445Z,56.30
2019-01-29T23:32:45.094Z,50.50
2019-01-29T23:35:16.718Z,47.83
2019-01-29T23:37:48.404Z,61.27
2019-01-29T23:40:21.504Z,53.87
2019-01-29T23:42:53.083Z,51.47
2019-01-29T23:45:24.730Z,49.90
2019-01-29T23:48:02.404Z,52.67
2019-01-29T23:50:34.137Z,54.57
2019-01-29T23:53:05.760Z,50.60
2019-01-29T23:55:37.403Z,69.33
2019-01-29T23:58:09.042Z,52.33
